CYPO

Peawanuck Airport

Peawanuck, Ontario, Canada
METAR CYPO 100614Z AUTO 18006KT 9SM OVC017 M13/M15 A3014 RMK SLP214
Observed Flight Rules
Dec-10 @ 06:14 UTC (26 minutes ago) Marginal Visual Flight Rules
Wind Visibility Clouds
180° at 6 knots 9 miles
  • Overcast at 1,700' AGL
Temperatures Readings
Current -13°C / 9°F
Dewpoint -15°C / 5°F
Humidity 85%
Altimeter 30.14" Hg
Pressure 1021.4 hPa
Elevation 53
METAR CYPO 100614Z AUTO 18006KT 9SM OVC017 M13/M15 A3014 RMK SLP214
Observed Flight Rules
Dec-10 @ 06:14 UTC
(26 minutes ago)
MVFR
Wind Visibility
180° at 6 knots 9 miles
Clouds
  • Overcast at 1,700' AGL
Temperature Dewpoint
-13°C / 9°F -15°C / 5°F
Humidity Altimeter Pressure
85% 30.14" Hg 1021.4 hPa